sensor_id;sensor_type;location;lat;lon;timestamp;P1;durP1;ratioP1;P2;durP2;ratioP2
20090;SDS011;10205;49.678;6.560;2023-05-10T00:01:07;0.90;;;0.90;;
20090;SDS011;10205;49.678;6.560;2023-05-10T00:03:35;1.23;;;1.00;;
20090;SDS011;10205;49.678;6.560;2023-05-10T00:06:06;0.90;;;0.70;;
20090;SDS011;10205;49.678;6.560;2023-05-10T00:08:34;1.00;;;0.82;;
20090;SDS011;10205;49.678;6.560;2023-05-10T00:11:01;1.77;;;1.00;;
20090;SDS011;10205;49.678;6.560;2023-05-10T00:13:28;1.40;;;1.00;;
20090;SDS011;10205;49.678;6.560;2023-05-10T00:15:55;0.88;;;0.88;;
20090;SDS011;10205;49.678;6.560;2023-05-10T00:18:22;1.38;;;0.75;;
20090;SDS011;10205;49.678;6.560;2023-05-10T00:20:49;1.00;;;1.00;;
20090;SDS011;10205;49.678;6.560;2023-05-10T00:23:18;1.15;;;1.05;;
20090;SDS011;10205;49.678;6.560;2023-05-10T00:25:45;1.30;;;0.88;;
20090;SDS011;10205;49.678;6.560;2023-05-10T00:28:12;1.10;;;1.00;;
20090;SDS011;10205;49.678;6.560;2023-05-10T00:30:39;0.80;;;0.80;;
20090;SDS011;10205;49.678;6.560;2023-05-10T00:33:06;1.00;;;0.90;;
20090;SDS011;10205;49.678;6.560;2023-05-10T00:35:33;0.90;;;0.90;;
20090;SDS011;10205;49.678;6.560;2023-05-10T00:38:00;0.98;;;0.90;;
20090;SDS011;10205;49.678;6.560;2023-05-10T00:40:29;0.90;;;0.90;;
20090;SDS011;10205;49.678;6.560;2023-05-10T00:42:56;1.23;;;0.95;;
20090;SDS011;10205;49.678;6.560;2023-05-10T00:45:24;1.05;;;0.98;;
20090;SDS011;10205;49.678;6.560;2023-05-10T00:47:52;1.30;;;1.00;;
20090;SDS011;10205;49.678;6.560;2023-05-10T00:50:21;1.10;;;1.00;;
20090;SDS011;10205;49.678;6.560;2023-05-10T00:52:48;1.20;;;1.00;;
20090;SDS011;10205;49.678;6.560;2023-05-10T00:55:16;1.20;;;1.10;;
20090;SDS011;10205;49.678;6.560;2023-05-10T00:57:46;1.20;;;1.10;;
20090;SDS011;10205;49.678;6.560;2023-05-10T01:00:18;1.13;;;1.10;;
20090;SDS011;10205;49.678;6.560;2023-05-10T01:02:45;1.17;;;1.00;;
20090;SDS011;10205;49.678;6.560;2023-05-10T01:05:14;1.27;;;1.00;;
20090;SDS011;10205;49.678;6.560;2023-05-10T01:07:41;1.20;;;1.10;;
20090;SDS011;10205;49.678;6.560;2023-05-10T01:10:09;1.17;;;1.08;;
20090;SDS011;10205;49.678;6.560;2023-05-10T01:12:37;1.35;;;1.00;;
20090;SDS011;10205;49.678;6.560;2023-05-10T01:15:09;1.85;;;1.33;;
20090;SDS011;10205;49.678;6.560;2023-05-10T01:17:39;1.05;;;1.00;;
20090;SDS011;10205;49.678;6.560;2023-05-10T01:20:10;1.50;;;1.02;;
20090;SDS011;10205;49.678;6.560;2023-05-10T01:22:50;1.45;;;1.35;;
20090;SDS011;10205;49.678;6.560;2023-05-10T01:25:50;0.98;;;0.90;;
20090;SDS011;10205;49.678;6.560;2023-05-10T01:29:03;2.17;;;1.05;;
20090;SDS011;10205;49.678;6.560;2023-05-10T01:32:17;1.20;;;1.10;;
20090;SDS011;10205;49.678;6.560;2023-05-10T01:34:59;0.80;;;0.80;;
20090;SDS011;10205;49.678;6.560;2023-05-10T01:37:37;1.90;;;1.42;;
20090;SDS011;10205;49.678;6.560;2023-05-10T01:40:13;1.15;;;1.05;;
20090;SDS011;10205;49.678;6.560;2023-05-10T01:42:50;1.10;;;1.00;;
20090;SDS011;10205;49.678;6.560;2023-05-10T01:45:27;1.20;;;0.90;;
20090;SDS011;10205;49.678;6.560;2023-05-10T01:48:03;1.30;;;1.20;;
20090;SDS011;10205;49.678;6.560;2023-05-10T01:50:37;2.00;;;1.00;;
20090;SDS011;10205;49.678;6.560;2023-05-10T01:53:09;1.05;;;0.98;;
20090;SDS011;10205;49.678;6.560;2023-05-10T01:55:41;1.50;;;1.17;;
20090;SDS011;10205;49.678;6.560;2023-05-10T01:58:14;1.40;;;1.30;;
20090;SDS011;10205;49.678;6.560;2023-05-10T02:00:47;1.30;;;1.20;;
20090;SDS011;10205;49.678;6.560;2023-05-10T02:03:18;1.80;;;1.40;;
20090;SDS011;10205;49.678;6.560;2023-05-10T02:05:50;2.08;;;1.27;;
20090;SDS011;10205;49.678;6.560;2023-05-10T02:08:20;3.30;;;1.60;;
20090;SDS011;10205;49.678;6.560;2023-05-10T02:10:50;1.40;;;1.30;;
20090;SDS011;10205;49.678;6.560;2023-05-10T02:13:21;1.27;;;1.17;;
20090;SDS011;10205;49.678;6.560;2023-05-10T02:15:52;1.80;;;1.15;;
20090;SDS011;10205;49.678;6.560;2023-05-10T02:18:23;1.58;;;1.20;;
20090;SDS011;10205;49.678;6.560;2023-05-10T02:20:53;1.45;;;1.35;;
20090;SDS011;10205;49.678;6.560;2023-05-10T02:23:22;1.92;;;1.70;;
20090;SDS011;10205;49.678;6.560;2023-05-10T02:25:51;1.63;;;1.48;;
20090;SDS011;10205;49.678;6.560;2023-05-10T02:28:21;2.13;;;1.38;;
20090;SDS011;10205;49.678;6.560;2023-05-10T02:30:51;3.15;;;1.40;;
20090;SDS011;10205;49.678;6.560;2023-05-10T02:33:19;1.40;;;1.30;;
20090;SDS011;10205;49.678;6.560;2023-05-10T02:35:50;2.28;;;1.20;;
20090;SDS011;10205;49.678;6.560;2023-05-10T02:38:17;1.50;;;1.40;;
20090;SDS011;10205;49.678;6.560;2023-05-10T02:40:47;1.60;;;1.50;;
20090;SDS011;10205;49.678;6.560;2023-05-10T02:43:15;1.65;;;1.55;;
20090;SDS011;10205;49.678;6.560;2023-05-10T02:45:45;1.83;;;1.30;;
20090;SDS011;10205;49.678;6.560;2023-05-10T02:48:14;1.50;;;1.40;;
20090;SDS011;10205;49.678;6.560;2023-05-10T02:50:42;1.83;;;1.52;;
20090;SDS011;10205;49.678;6.560;2023-05-10T02:53:18;1.70;;;1.60;;
20090;SDS011;10205;49.678;6.560;2023-05-10T02:55:50;2.80;;;1.73;;
20090;SDS011;10205;49.678;6.560;2023-05-10T02:58:23;2.17;;;1.48;;
20090;SDS011;10205;49.678;6.560;2023-05-10T03:00:50;1.80;;;1.50;;
20090;SDS011;10205;49.678;6.560;2023-05-10T03:03:17;1.60;;;1.50;;
20090;SDS011;10205;49.678;6.560;2023-05-10T03:05:46;2.80;;;1.50;;
20090;SDS011;10205;49.678;6.560;2023-05-10T03:08:13;1.80;;;1.65;;
20090;SDS011;10205;49.678;6.560;2023-05-10T03:10:53;4.10;;;1.58;;
20090;SDS011;10205;49.678;6.560;2023-05-10T03:13:39;1.90;;;1.55;;
20090;SDS011;10205;49.678;6.560;2023-05-10T03:16:20;1.60;;;1.50;;
20090;SDS011;10205;49.678;6.560;2023-05-10T03:18:54;2.55;;;1.70;;
20090;SDS011;10205;49.678;6.560;2023-05-10T03:21:29;4.65;;;1.55;;
20090;SDS011;10205;49.678;6.560;2023-05-10T03:23:58;1.92;;;1.60;;
20090;SDS011;10205;49.678;6.560;2023-05-10T03:26:33;1.63;;;1.52;;
20090;SDS011;10205;49.678;6.560;2023-05-10T03:29:02;2.40;;;1.80;;
20090;SDS011;10205;49.678;6.560;2023-05-10T03:31:32;1.88;;;1.65;;
20090;SDS011;10205;49.678;6.560;2023-05-10T03:34:00;1.83;;;1.73;;
20090;SDS011;10205;49.678;6.560;2023-05-10T03:36:27;1.80;;;1.50;;
20090;SDS011;10205;49.678;6.560;2023-05-10T03:38:54;1.60;;;1.50;;
20090;SDS011;10205;49.678;6.560;2023-05-10T03:41:21;1.60;;;1.50;;
20090;SDS011;10205;49.678;6.560;2023-05-10T03:43:50;2.42;;;1.50;;
20090;SDS011;10205;49.678;6.560;2023-05-10T03:46:17;1.67;;;1.48;;
20090;SDS011;10205;49.678;6.560;2023-05-10T03:48:44;1.63;;;1.50;;
20090;SDS011;10205;49.678;6.560;2023-05-10T03:51:11;2.03;;;1.60;;
20090;SDS011;10205;49.678;6.560;2023-05-10T03:53:38;1.30;;;1.20;;
20090;SDS011;10205;49.678;6.560;2023-05-10T03:56:05;1.50;;;1.40;;
20090;SDS011;10205;49.678;6.560;2023-05-10T03:58:32;1.63;;;1.42;;
20090;SDS011;10205;49.678;6.560;2023-05-10T04:01:00;2.08;;;1.30;;
20090;SDS011;10205;49.678;6.560;2023-05-10T04:03:28;1.15;;;1.00;;
20090;SDS011;10205;49.678;6.560;2023-05-10T04:05:58;1.55;;;1.45;;
20090;SDS011;10205;49.678;6.560;2023-05-10T04:08:26;1.65;;;1.55;;
20090;SDS011;10205;49.678;6.560;2023-05-10T04:10:53;3.45;;;1.65;;
20090;SDS011;10205;49.678;6.560;2023-05-10T04:13:20;1.50;;;1.40;;
20090;SDS011;10205;49.678;6.560;2023-05-10T04:15:47;1.27;;;1.17;;
20090;SDS011;10205;49.678;6.560;2023-05-10T04:18:16;1.33;;;1.20;;
20090;SDS011;10205;49.678;6.560;2023-05-10T04:20:43;1.30;;;1.20;;
20090;SDS011;10205;49.678;6.560;2023-05-10T04:23:10;1.50;;;1.17;;
20090;SDS011;10205;49.678;6.560;2023-05-10T04:25:37;1.67;;;1.27;;
20090;SDS011;10205;49.678;6.560;2023-05-10T04:28:04;1.55;;;1.20;;
20090;SDS011;10205;49.678;6.560;2023-05-10T04:30:31;1.40;;;1.30;;
20090;SDS011;10205;49.678;6.560;2023-05-10T04:32:58;2.75;;;1.30;;
20090;SDS011;10205;49.678;6.560;2023-05-10T04:35:26;1.45;;;1.35;;
20090;SDS011;10205;49.678;6.560;2023-05-10T04:37:54;1.30;;;1.20;;
20090;SDS011;10205;49.678;6.560;2023-05-10T04:40:21;1.30;;;1.20;;
20090;SDS011;10205;49.678;6.560;2023-05-10T04:42:48;2.13;;;1.05;;
20090;SDS011;10205;49.678;6.560;2023-05-10T04:45:15;2.28;;;1.00;;
20090;SDS011;10205;49.678;6.560;2023-05-10T04:47:42;1.70;;;1.30;;
20090;SDS011;10205;49.678;6.560;2023-05-10T04:50:09;1.30;;;0.90;;
20090;SDS011;10205;49.678;6.560;2023-05-10T04:52:38;1.25;;;1.00;;
20090;SDS011;10205;49.678;6.560;2023-05-10T04:55:05;1.23;;;0.93;;
20090;SDS011;10205;49.678;6.560;2023-05-10T04:57:34;0.88;;;0.88;;
20090;SDS011;10205;49.678;6.560;2023-05-10T05:00:01;2.53;;;1.20;;
20090;SDS011;10205;49.678;6.560;2023-05-10T05:02:29;2.33;;;1.20;;
20090;SDS011;10205;49.678;6.560;2023-05-10T05:04:56;1.40;;;1.10;;
20090;SDS011;10205;49.678;6.560;2023-05-10T05:07:23;0.95;;;0.90;;
20090;SDS011;10205;49.678;6.560;2023-05-10T05:09:52;1.20;;;1.10;;
20090;SDS011;10205;49.678;6.560;2023-05-10T05:12:19;1.02;;;0.93;;
20090;SDS011;10205;49.678;6.560;2023-05-10T05:14:46;1.77;;;1.20;;
20090;SDS011;10205;49.678;6.560;2023-05-10T05:17:13;1.42;;;1.00;;
20090;SDS011;10205;49.678;6.560;2023-05-10T05:19:40;2.85;;;0.98;;
20090;SDS011;10205;49.678;6.560;2023-05-10T05:22:07;0.80;;;0.77;;
20090;SDS011;10205;49.678;6.560;2023-05-10T05:24:37;1.25;;;0.90;;
20090;SDS011;10205;49.678;6.560;2023-05-10T05:27:05;1.30;;;1.20;;
20090;SDS011;10205;49.678;6.560;2023-05-10T05:29:32;1.00;;;0.90;;
20090;SDS011;10205;49.678;6.560;2023-05-10T05:31:59;1.30;;;0.88;;
20090;SDS011;10205;49.678;6.560;2023-05-10T05:34:26;0.90;;;0.85;;
20090;SDS011;10205;49.678;6.560;2023-05-10T05:36:53;1.25;;;0.80;;
20090;SDS011;10205;49.678;6.560;2023-05-10T05:39:20;1.15;;;0.80;;
20090;SDS011;10205;49.678;6.560;2023-05-10T05:41:47;0.73;;;0.73;;
20090;SDS011;10205;49.678;6.560;2023-05-10T05:44:16;0.90;;;0.90;;
20090;SDS011;10205;49.678;6.560;2023-05-10T05:46:43;0.93;;;0.90;;
20090;SDS011;10205;49.678;6.560;2023-05-10T05:49:10;0.82;;;0.80;;
20090;SDS011;10205;49.678;6.560;2023-05-10T05:51:37;0.70;;;0.70;;
20090;SDS011;10205;49.678;6.560;2023-05-10T05:54:04;0.70;;;0.70;;
20090;SDS011;10205;49.678;6.560;2023-05-10T05:56:31;0.90;;;0.90;;
20090;SDS011;10205;49.678;6.560;2023-05-10T05:58:58;1.00;;;0.90;;
20090;SDS011;10205;49.678;6.560;2023-05-10T06:01:26;0.85;;;0.80;;
20090;SDS011;10205;49.678;6.560;2023-05-10T06:03:53;0.60;;;0.60;;
20090;SDS011;10205;49.678;6.560;2023-05-10T06:06:20;1.00;;;0.80;;
20090;SDS011;10205;49.678;6.560;2023-05-10T06:08:47;1.02;;;0.95;;
20090;SDS011;10205;49.678;6.560;2023-05-10T06:11:18;0.70;;;0.70;;
20090;SDS011;10205;49.678;6.560;2023-05-10T06:13:45;0.98;;;0.98;;
20090;SDS011;10205;49.678;6.560;2023-05-10T06:16:13;0.90;;;0.90;;
20090;SDS011;10205;49.678;6.560;2023-05-10T06:18:41;1.15;;;0.80;;
20090;SDS011;10205;49.678;6.560;2023-05-10T06:21:08;1.70;;;0.82;;
20090;SDS011;10205;49.678;6.560;2023-05-10T06:23:35;1.65;;;0.75;;
20090;SDS011;10205;49.678;6.560;2023-05-10T06:26:02;0.60;;;0.60;;
20090;SDS011;10205;49.678;6.560;2023-05-10T06:28:31;0.70;;;0.70;;
20090;SDS011;10205;49.678;6.560;2023-05-10T06:30:59;1.45;;;0.85;;
20090;SDS011;10205;49.678;6.560;2023-05-10T06:33:26;2.13;;;1.00;;
20090;SDS011;10205;49.678;6.560;2023-05-10T06:35:55;2.65;;;0.70;;
20090;SDS011;10205;49.678;6.560;2023-05-10T06:38:22;1.27;;;0.70;;
20090;SDS011;10205;49.678;6.560;2023-05-10T06:40:50;1.88;;;1.00;;
20090;SDS011;10205;49.678;6.560;2023-05-10T06:43:17;0.70;;;0.70;;
20090;SDS011;10205;49.678;6.560;2023-05-10T06:45:44;0.65;;;0.60;;
20090;SDS011;10205;49.678;6.560;2023-05-10T06:48:11;1.55;;;0.57;;
20090;SDS011;10205;49.678;6.560;2023-05-10T06:50:38;1.13;;;0.60;;
20090;SDS011;10205;49.678;6.560;2023-05-10T06:53:06;0.55;;;0.52;;
20090;SDS011;10205;49.678;6.560;2023-05-10T06:55:33;0.82;;;0.60;;
20090;SDS011;10205;49.678;6.560;2023-05-10T06:58:00;1.00;;;0.60;;
20090;SDS011;10205;49.678;6.560;2023-05-10T07:00:28;1.17;;;0.80;;
20090;SDS011;10205;49.678;6.560;2023-05-10T07:02:55;1.08;;;0.88;;
20090;SDS011;10205;49.678;6.560;2023-05-10T07:05:22;0.50;;;0.50;;
20090;SDS011;10205;49.678;6.560;2023-05-10T07:07:49;2.17;;;0.57;;
20090;SDS011;10205;49.678;6.560;2023-05-10T07:10:18;1.35;;;0.80;;
20090;SDS011;10205;49.678;6.560;2023-05-10T07:12:45;1.88;;;0.80;;
20090;SDS011;10205;49.678;6.560;2023-05-10T07:15:12;1.13;;;0.60;;
20090;SDS011;10205;49.678;6.560;2023-05-10T07:17:39;0.70;;;0.70;;
20090;SDS011;10205;49.678;6.560;2023-05-10T07:20:06;0.57;;;0.57;;
20090;SDS011;10205;49.678;6.560;2023-05-10T07:22:35;0.93;;;0.80;;
20090;SDS011;10205;49.678;6.560;2023-05-10T07:25:02;0.57;;;0.57;;
20090;SDS011;10205;49.678;6.560;2023-05-10T07:27:31;1.20;;;1.10;;
20090;SDS011;10205;49.678;6.560;2023-05-10T07:29:58;0.57;;;0.57;;
20090;SDS011;10205;49.678;6.560;2023-05-10T07:32:25;0.60;;;0.60;;
20090;SDS011;10205;49.678;6.560;2023-05-10T07:34:52;0.63;;;0.63;;
20090;SDS011;10205;49.678;6.560;2023-05-10T07:37:19;0.55;;;0.55;;
20090;SDS011;10205;49.678;6.560;2023-05-10T07:39:46;0.70;;;0.70;;
20090;SDS011;10205;49.678;6.560;2023-05-10T07:42:15;0.57;;;0.52;;
20090;SDS011;10205;49.678;6.560;2023-05-10T07:44:44;0.85;;;0.75;;
20090;SDS011;10205;49.678;6.560;2023-05-10T07:47:12;0.57;;;0.57;;
20090;SDS011;10205;49.678;6.560;2023-05-10T07:49:39;0.68;;;0.68;;
20090;SDS011;10205;49.678;6.560;2023-05-10T07:52:06;1.00;;;0.70;;
20090;SDS011;10205;49.678;6.560;2023-05-10T07:54:33;1.05;;;0.73;;
20090;SDS011;10205;49.678;6.560;2023-05-10T07:57:00;0.70;;;0.70;;
20090;SDS011;10205;49.678;6.560;2023-05-10T07:59:27;0.65;;;0.65;;
20090;SDS011;10205;49.678;6.560;2023-05-10T08:01:55;0.68;;;0.68;;
20090;SDS011;10205;49.678;6.560;2023-05-10T08:04:22;0.70;;;0.70;;
20090;SDS011;10205;49.678;6.560;2023-05-10T08:06:49;0.68;;;0.68;;
20090;SDS011;10205;49.678;6.560;2023-05-10T08:09:16;0.50;;;0.50;;
20090;SDS011;10205;49.678;6.560;2023-05-10T08:11:48;0.70;;;0.70;;
20090;SDS011;10205;49.678;6.560;2023-05-10T08:14:15;0.82;;;0.60;;
20090;SDS011;10205;49.678;6.560;2023-05-10T08:16:43;0.70;;;0.70;;
20090;SDS011;10205;49.678;6.560;2023-05-10T08:19:11;0.65;;;0.65;;
20090;SDS011;10205;49.678;6.560;2023-05-10T08:21:44;1.23;;;0.77;;
20090;SDS011;10205;49.678;6.560;2023-05-10T08:24:11;1.30;;;0.80;;
20090;SDS011;10205;49.678;6.560;2023-05-10T08:26:39;0.75;;;0.75;;
20090;SDS011;10205;49.678;6.560;2023-05-10T08:29:06;1.25;;;0.70;;
20090;SDS011;10205;49.678;6.560;2023-05-10T08:31:33;5.03;;;1.00;;
20090;SDS011;10205;49.678;6.560;2023-05-10T08:34:00;1.00;;;0.90;;
20090;SDS011;10205;49.678;6.560;2023-05-10T08:36:29;0.60;;;0.60;;
20090;SDS011;10205;49.678;6.560;2023-05-10T08:38:57;1.45;;;0.90;;
20090;SDS011;10205;49.678;6.560;2023-05-10T08:41:24;1.55;;;0.82;;
20090;SDS011;10205;49.678;6.560;2023-05-10T08:43:52;1.25;;;0.80;;
20090;SDS011;10205;49.678;6.560;2023-05-10T08:46:20;2.20;;;1.02;;
20090;SDS011;10205;49.678;6.560;2023-05-10T08:48:49;0.90;;;0.90;;
20090;SDS011;10205;49.678;6.560;2023-05-10T08:51:17;11.43;;;1.13;;
20090;SDS011;10205;49.678;6.560;2023-05-10T08:53:50;0.80;;;0.80;;
20090;SDS011;10205;49.678;6.560;2023-05-10T08:56:17;1.90;;;1.20;;
20090;SDS011;10205;49.678;6.560;2023-05-10T08:58:45;1.10;;;0.93;;
20090;SDS011;10205;49.678;6.560;2023-05-10T09:01:13;1.77;;;1.15;;
20090;SDS011;10205;49.678;6.560;2023-05-10T09:03:43;2.65;;;0.93;;
20090;SDS011;10205;49.678;6.560;2023-05-10T09:06:13;1.58;;;0.90;;
20090;SDS011;10205;49.678;6.560;2023-05-10T09:08:40;2.45;;;1.10;;
20090;SDS011;10205;49.678;6.560;2023-05-10T09:11:11;2.60;;;1.10;;
20090;SDS011;10205;49.678;6.560;2023-05-10T09:13:39;1.20;;;1.10;;
20090;SDS011;10205;49.678;6.560;2023-05-10T09:16:06;2.45;;;1.25;;
20090;SDS011;10205;49.678;6.560;2023-05-10T09:18:33;2.03;;;1.10;;
20090;SDS011;10205;49.678;6.560;2023-05-10T09:21:01;2.22;;;1.20;;
20090;SDS011;10205;49.678;6.560;2023-05-10T09:23:28;1.35;;;1.20;;
20090;SDS011;10205;49.678;6.560;2023-05-10T09:26:03;2.25;;;1.52;;
20090;SDS011;10205;49.678;6.560;2023-05-10T09:28:33;1.70;;;1.15;;
20090;SDS011;10205;49.678;6.560;2023-05-10T09:31:00;1.23;;;1.13;;
20090;SDS011;10205;49.678;6.560;2023-05-10T09:33:27;2.17;;;1.45;;
20090;SDS011;10205;49.678;6.560;2023-05-10T09:35:54;1.52;;;1.10;;
20090;SDS011;10205;49.678;6.560;2023-05-10T09:38:33;2.08;;;1.25;;
20090;SDS011;10205;49.678;6.560;2023-05-10T09:41:16;1.58;;;1.13;;
20090;SDS011;10205;49.678;6.560;2023-05-10T09:43:46;2.58;;;1.40;;
20090;SDS011;10205;49.678;6.560;2023-05-10T09:46:13;1.42;;;1.20;;
20090;SDS011;10205;49.678;6.560;2023-05-10T09:48:42;2.35;;;1.23;;
20090;SDS011;10205;49.678;6.560;2023-05-10T09:51:18;3.10;;;1.23;;
20090;SDS011;10205;49.678;6.560;2023-05-10T09:53:46;2.78;;;1.50;;
20090;SDS011;10205;49.678;6.560;2023-05-10T09:56:18;4.55;;;1.50;;
20090;SDS011;10205;49.678;6.560;2023-05-10T09:59:04;2.38;;;1.40;;
20090;SDS011;10205;49.678;6.560;2023-05-10T10:01:33;5.03;;;1.73;;
20090;SDS011;10205;49.678;6.560;2023-05-10T10:04:02;2.55;;;1.20;;
20090;SDS011;10205;49.678;6.560;2023-05-10T10:06:34;3.28;;;1.40;;
20090;SDS011;10205;49.678;6.560;2023-05-10T10:09:03;5.85;;;1.42;;
20090;SDS011;10205;49.678;6.560;2023-05-10T10:11:31;4.35;;;1.15;;
20090;SDS011;10205;49.678;6.560;2023-05-10T10:14:00;2.88;;;1.50;;
20090;SDS011;10205;49.678;6.560;2023-05-10T10:16:29;2.60;;;1.17;;
20090;SDS011;10205;49.678;6.560;2023-05-10T10:18:58;4.10;;;1.42;;
20090;SDS011;10205;49.678;6.560;2023-05-10T10:21:25;1.95;;;1.50;;
20090;SDS011;10205;49.678;6.560;2023-05-10T10:23:52;4.03;;;1.25;;
20090;SDS011;10205;49.678;6.560;2023-05-10T10:26:20;2.47;;;1.35;;
20090;SDS011;10205;49.678;6.560;2023-05-10T10:28:49;1.48;;;1.17;;
20090;SDS011;10205;49.678;6.560;2023-05-10T10:31:36;3.15;;;1.23;;
20090;SDS011;10205;49.678;6.560;2023-05-10T10:34:17;3.38;;;1.88;;
20090;SDS011;10205;49.678;6.560;2023-05-10T10:36:52;2.47;;;1.30;;
20090;SDS011;10205;49.678;6.560;2023-05-10T10:39:22;3.33;;;1.45;;
20090;SDS011;10205;49.678;6.560;2023-05-10T10:41:51;1.30;;;1.20;;
20090;SDS011;10205;49.678;6.560;2023-05-10T10:47:10;7.28;;;1.58;;
20090;SDS011;10205;49.678;6.560;2023-05-10T10:49:52;1.95;;;1.08;;
20090;SDS011;10205;49.678;6.560;2023-05-10T10:52:31;2.08;;;1.10;;
20090;SDS011;10205;49.678;6.560;2023-05-10T10:55:00;4.13;;;1.20;;
20090;SDS011;10205;49.678;6.560;2023-05-10T10:57:31;1.45;;;1.10;;
20090;SDS011;10205;49.678;6.560;2023-05-10T11:00:26;1.42;;;0.80;;
20090;SDS011;10205;49.678;6.560;2023-05-10T11:02:57;3.10;;;1.10;;
20090;SDS011;10205;49.678;6.560;2023-05-10T11:05:33;2.33;;;1.20;;
20090;SDS011;10205;49.678;6.560;2023-05-10T11:08:09;5.05;;;1.23;;
20090;SDS011;10205;49.678;6.560;2023-05-10T11:13:34;2.17;;;1.00;;
20090;SDS011;10205;49.678;6.560;2023-05-10T11:16:12;2.58;;;1.02;;
20090;SDS011;10205;49.678;6.560;2023-05-10T11:18:53;1.55;;;0.90;;
20090;SDS011;10205;49.678;6.560;2023-05-10T11:21:24;4.93;;;1.17;;
20090;SDS011;10205;49.678;6.560;2023-05-10T11:23:55;3.85;;;1.00;;
20090;SDS011;10205;49.678;6.560;2023-05-10T11:26:24;2.03;;;1.15;;
20090;SDS011;10205;49.678;6.560;2023-05-10T11:28:56;2.05;;;1.02;;
20090;SDS011;10205;49.678;6.560;2023-05-10T11:31:25;3.20;;;1.05;;
20090;SDS011;10205;49.678;6.560;2023-05-10T11:33:54;1.67;;;0.90;;
20090;SDS011;10205;49.678;6.560;2023-05-10T11:36:24;3.58;;;1.00;;
20090;SDS011;10205;49.678;6.560;2023-05-10T11:38:54;3.63;;;1.00;;
20090;SDS011;10205;49.678;6.560;2023-05-10T11:41:23;1.98;;;1.20;;
20090;SDS011;10205;49.678;6.560;2023-05-10T11:43:51;4.20;;;1.17;;
20090;SDS011;10205;49.678;6.560;2023-05-10T11:46:20;2.15;;;1.10;;
20090;SDS011;10205;49.678;6.560;2023-05-10T11:48:51;2.38;;;1.00;;
20090;SDS011;10205;49.678;6.560;2023-05-10T11:51:22;2.20;;;1.10;;
20090;SDS011;10205;49.678;6.560;2023-05-10T11:53:50;2.10;;;0.98;;
20090;SDS011;10205;49.678;6.560;2023-05-10T11:56:20;2.58;;;1.30;;
20090;SDS011;10205;49.678;6.560;2023-05-10T11:58:52;2.13;;;1.13;;
20090;SDS011;10205;49.678;6.560;2023-05-10T12:01:20;1.55;;;0.80;;
20090;SDS011;10205;49.678;6.560;2023-05-10T12:03:48;2.15;;;1.02;;
20090;SDS011;10205;49.678;6.560;2023-05-10T12:06:18;2.97;;;0.90;;
20090;SDS011;10205;49.678;6.560;2023-05-10T12:08:47;1.50;;;0.80;;
20090;SDS011;10205;49.678;6.560;2023-05-10T12:11:17;3.75;;;0.80;;
20090;SDS011;10205;49.678;6.560;2023-05-10T12:13:45;1.60;;;0.90;;
20090;SDS011;10205;49.678;6.560;2023-05-10T12:16:13;2.20;;;1.02;;
20090;SDS011;10205;49.678;6.560;2023-05-10T12:18:42;2.38;;;1.00;;
20090;SDS011;10205;49.678;6.560;2023-05-10T12:21:10;1.60;;;0.82;;
20090;SDS011;10205;49.678;6.560;2023-05-10T12:23:39;0.93;;;0.70;;
20090;SDS011;10205;49.678;6.560;2023-05-10T12:26:08;1.55;;;1.00;;
20090;SDS011;10205;49.678;6.560;2023-05-10T12:28:36;1.52;;;0.65;;
20090;SDS011;10205;49.678;6.560;2023-05-10T12:31:05;1.92;;;0.88;;
20090;SDS011;10205;49.678;6.560;2023-05-10T12:33:35;1.98;;;0.80;;
20090;SDS011;10205;49.678;6.560;2023-05-10T12:36:06;3.40;;;0.80;;
20090;SDS011;10205;49.678;6.560;2023-05-10T12:38:35;2.22;;;0.63;;
20090;SDS011;10205;49.678;6.560;2023-05-10T12:41:05;2.88;;;1.05;;
20090;SDS011;10205;49.678;6.560;2023-05-10T12:43:35;1.10;;;0.70;;
20090;SDS011;10205;49.678;6.560;2023-05-10T12:46:06;1.92;;;1.00;;
20090;SDS011;10205;49.678;6.560;2023-05-10T12:48:34;3.53;;;0.90;;
20090;SDS011;10205;49.678;6.560;2023-05-10T12:51:02;1.00;;;0.60;;
20090;SDS011;10205;49.678;6.560;2023-05-10T12:53:34;3.13;;;0.90;;
20090;SDS011;10205;49.678;6.560;2023-05-10T12:56:01;1.05;;;0.63;;
20090;SDS011;10205;49.678;6.560;2023-05-10T12:58:30;1.27;;;0.70;;
20090;SDS011;10205;49.678;6.560;2023-05-10T13:00:57;0.70;;;0.60;;
20090;SDS011;10205;49.678;6.560;2023-05-10T13:03:25;1.20;;;0.80;;
20090;SDS011;10205;49.678;6.560;2023-05-10T13:05:52;0.50;;;0.40;;
20090;SDS011;10205;49.678;6.560;2023-05-10T13:08:19;4.97;;;0.80;;
20090;SDS011;10205;49.678;6.560;2023-05-10T13:10:46;1.10;;;0.70;;
20090;SDS011;10205;49.678;6.560;2023-05-10T13:13:13;1.25;;;0.70;;
20090;SDS011;10205;49.678;6.560;2023-05-10T13:15:44;0.98;;;0.57;;
20090;SDS011;10205;49.678;6.560;2023-05-10T13:18:11;4.53;;;0.90;;
20090;SDS011;10205;49.678;6.560;2023-05-10T13:20:38;0.63;;;0.50;;
20090;SDS011;10205;49.678;6.560;2023-05-10T13:23:05;0.82;;;0.60;;
20090;SDS011;10205;49.678;6.560;2023-05-10T13:25:32;1.00;;;0.52;;
20090;SDS011;10205;49.678;6.560;2023-05-10T13:27:59;2.05;;;0.70;;
20090;SDS011;10205;49.678;6.560;2023-05-10T13:30:26;2.10;;;0.50;;
20090;SDS011;10205;49.678;6.560;2023-05-10T13:32:55;0.70;;;0.60;;
20090;SDS011;10205;49.678;6.560;2023-05-10T13:35:22;1.02;;;0.57;;
20090;SDS011;10205;49.678;6.560;2023-05-10T13:37:49;0.63;;;0.50;;
20090;SDS011;10205;49.678;6.560;2023-05-10T13:40:17;0.73;;;0.68;;
20090;SDS011;10205;49.678;6.560;2023-05-10T13:42:44;1.23;;;0.60;;
20090;SDS011;10205;49.678;6.560;2023-05-10T13:45:11;0.75;;;0.68;;
20090;SDS011;10205;49.678;6.560;2023-05-10T13:47:38;0.80;;;0.60;;
20090;SDS011;10205;49.678;6.560;2023-05-10T13:50:07;1.30;;;0.50;;
20090;SDS011;10205;49.678;6.560;2023-05-10T13:52:35;4.28;;;1.08;;
20090;SDS011;10205;49.678;6.560;2023-05-10T13:55:02;0.68;;;0.55;;
20090;SDS011;10205;49.678;6.560;2023-05-10T13:57:30;0.50;;;0.47;;
20090;SDS011;10205;49.678;6.560;2023-05-10T13:59:59;1.77;;;0.50;;
20090;SDS011;10205;49.678;6.560;2023-05-10T14:02:26;1.75;;;0.80;;
20090;SDS011;10205;49.678;6.560;2023-05-10T14:04:53;0.60;;;0.50;;
20090;SDS011;10205;49.678;6.560;2023-05-10T14:07:21;1.15;;;0.60;;
20090;SDS011;10205;49.678;6.560;2023-05-10T14:09:48;1.05;;;0.50;;
20090;SDS011;10205;49.678;6.560;2023-05-10T14:12:15;1.73;;;0.80;;
20090;SDS011;10205;49.678;6.560;2023-05-10T14:14:42;1.40;;;0.52;;
20090;SDS011;10205;49.678;6.560;2023-05-10T14:17:10;1.88;;;0.57;;
20090;SDS011;10205;49.678;6.560;2023-05-10T14:19:37;1.33;;;0.43;;
20090;SDS011;10205;49.678;6.560;2023-05-10T14:22:04;2.38;;;0.60;;
20090;SDS011;10205;49.678;6.560;2023-05-10T14:24:32;0.82;;;0.60;;
20090;SDS011;10205;49.678;6.560;2023-05-10T14:26:59;1.85;;;0.40;;
20090;SDS011;10205;49.678;6.560;2023-05-10T14:29:27;2.40;;;0.77;;
20090;SDS011;10205;49.678;6.560;2023-05-10T14:31:54;2.15;;;0.60;;
20090;SDS011;10205;49.678;6.560;2023-05-10T14:34:21;1.58;;;0.50;;
20090;SDS011;10205;49.678;6.560;2023-05-10T14:36:48;0.50;;;0.40;;
20090;SDS011;10205;49.678;6.560;2023-05-10T14:39:15;1.05;;;0.60;;
20090;SDS011;10205;49.678;6.560;2023-05-10T14:41:44;0.50;;;0.35;;
20090;SDS011;10205;49.678;6.560;2023-05-10T14:44:12;1.17;;;0.50;;
20090;SDS011;10205;49.678;6.560;2023-05-10T14:46:40;1.60;;;0.85;;
20090;SDS011;10205;49.678;6.560;2023-05-10T14:49:07;1.00;;;0.60;;
20090;SDS011;10205;49.678;6.560;2023-05-10T14:51:34;1.27;;;0.50;;
20090;SDS011;10205;49.678;6.560;2023-05-10T14:54:02;1.85;;;0.60;;
20090;SDS011;10205;49.678;6.560;2023-05-10T14:56:29;0.60;;;0.47;;
20090;SDS011;10205;49.678;6.560;2023-05-10T14:58:57;1.90;;;0.65;;
20090;SDS011;10205;49.678;6.560;2023-05-10T15:01:25;0.50;;;0.40;;
20090;SDS011;10205;49.678;6.560;2023-05-10T15:03:52;1.20;;;0.65;;
20090;SDS011;10205;49.678;6.560;2023-05-10T15:06:22;1.05;;;0.50;;